createdAt,value
2023-02-15T00:01:46.040Z,99.90
2023-02-15T00:04:18.840Z,99.90
2023-02-15T00:06:50.386Z,99.90
2023-02-15T00:09:21.441Z,99.90
2023-02-15T00:11:58.748Z,99.90
2023-02-15T00:14:29.849Z,99.90
2023-02-15T00:17:02.667Z,99.90
2023-02-15T00:19:39.166Z,99.90
2023-02-15T00:22:10.328Z,99.90
2023-02-15T00:25:01.154Z,99.90
2023-02-15T00:27:33.638Z,99.90
2023-02-15T00:30:08.122Z,99.90
2023-02-15T00:32:39.028Z,99.90
2023-02-15T00:35:30.023Z,99.90
2023-02-15T00:38:01.464Z,99.90
2023-02-15T00:40:36.221Z,99.90
2023-02-15T00:43:07.347Z,99.90
2023-02-15T00:45:39.796Z,99.90
2023-02-15T00:48:10.852Z,99.90
2023-02-15T00:50:42.110Z,99.90
2023-02-15T00:53:12.852Z,99.90
2023-02-15T00:55:45.049Z,99.40
2023-02-15T00:58:16.822Z,98.90
2023-02-15T01:00:49.617Z,98.10
2023-02-15T01:03:22.540Z,97.20
2023-02-15T01:05:53.556Z,97.30
2023-02-15T01:08:30.486Z,96.50
2023-02-15T01:11:08.233Z,95.50
2023-02-15T01:13:39.688Z,95.30
2023-02-15T01:16:11.178Z,96.30
2023-02-15T01:18:42.255Z,96.00
2023-02-15T01:21:18.357Z,96.70
2023-02-15T01:23:49.557Z,96.50
2023-02-15T01:26:21.055Z,96.20
2023-02-15T01:28:52.342Z,96.30
2023-02-15T01:31:25.959Z,95.30
2023-02-15T01:33:57.234Z,95.70
2023-02-15T01:36:28.251Z,95.10
2023-02-15T01:38:59.289Z,93.60
2023-02-15T01:41:30.415Z,94.30
2023-02-15T01:44:05.879Z,92.50
2023-02-15T01:46:40.210Z,93.00
2023-02-15T01:49:23.974Z,93.50
2023-02-15T01:51:55.934Z,94.30
2023-02-15T01:54:41.122Z,94.20
2023-02-15T01:57:21.088Z,93.70
2023-02-15T01:59:58.293Z,93.00
2023-02-15T02:02:30.118Z,93.70
2023-02-15T02:05:09.052Z,92.80
2023-02-15T02:07:47.518Z,92.60
2023-02-15T02:10:25.061Z,92.60
2023-02-15T02:13:00.512Z,92.40
2023-02-15T02:15:51.369Z,92.50
2023-02-15T02:18:41.796Z,91.80
2023-02-15T02:21:34.162Z,92.10
2023-02-15T02:24:08.508Z,92.90
2023-02-15T02:26:55.687Z,91.60
2023-02-15T02:29:38.447Z,92.90
2023-02-15T02:32:40.017Z,92.30
2023-02-15T02:35:30.574Z,91.60
2023-02-15T02:38:21.232Z,92.30
2023-02-15T02:41:23.892Z,90.80
2023-02-15T02:44:01.709Z,91.50
2023-02-15T02:46:58.670Z,91.10
2023-02-15T02:49:38.453Z,90.60
2023-02-15T02:52:40.389Z,90.80
2023-02-15T02:55:30.805Z,90.60
2023-02-15T02:58:31.071Z,91.50
2023-02-15T03:01:24.323Z,90.20
2023-02-15T03:03:59.496Z,91.20
2023-02-15T03:06:56.005Z,90.20
2023-02-15T03:09:45.147Z,90.00
2023-02-15T03:12:25.745Z,90.10
2023-02-15T03:15:52.909Z,90.10
2023-02-15T03:18:36.781Z,90.00
2023-02-15T03:21:11.267Z,88.60
2023-02-15T03:23:49.385Z,90.40
2023-02-15T03:26:42.869Z,90.10
2023-02-15T03:32:18.948Z,89.50
2023-02-15T03:34:50.296Z,88.40
2023-02-15T03:37:30.249Z,87.60
2023-02-15T03:40:27.345Z,87.90
2023-02-15T03:43:15.763Z,88.00
2023-02-15T03:45:57.683Z,86.40
2023-02-15T03:48:34.738Z,85.90
2023-02-15T03:51:39.121Z,85.40
2023-02-15T03:54:47.444Z,84.10
2023-02-15T03:57:48.002Z,84.80
2023-02-15T04:00:47.006Z,84.20
2023-02-15T04:03:41.818Z,87.30
2023-02-15T04:06:14.736Z,83.60
2023-02-15T04:09:23.636Z,81.70
2023-02-15T04:11:58.183Z,81.50
2023-02-15T04:17:34.824Z,82.50
2023-02-15T04:20:26.670Z,83.60
2023-02-15T04:23:15.869Z,87.10
2023-02-15T04:25:47.121Z,84.50
2023-02-15T04:28:20.180Z,79.50
2023-02-15T04:30:51.561Z,80.50
2023-02-15T04:33:27.848Z,83.60
2023-02-15T04:35:59.315Z,81.30
2023-02-15T04:38:30.792Z,79.90
2023-02-15T04:41:01.985Z,80.80
2023-02-15T04:43:33.291Z,80.80
2023-02-15T04:46:04.726Z,80.80
2023-02-15T04:48:35.972Z,80.60
2023-02-15T04:51:13.802Z,79.10
2023-02-15T04:53:44.803Z,80.40
2023-02-15T04:56:26.148Z,83.40
2023-02-15T04:58:59.414Z,80.90
2023-02-15T05:01:30.889Z,80.70
2023-02-15T05:04:22.097Z,79.50
2023-02-15T05:06:55.037Z,79.40
2023-02-15T05:09:26.098Z,78.30
2023-02-15T05:12:18.452Z,79.20
2023-02-15T05:14:51.511Z,80.20
2023-02-15T05:17:22.742Z,77.40
2023-02-15T05:19:56.151Z,77.50
2023-02-15T05:22:27.224Z,77.60
2023-02-15T05:25:16.610Z,77.30
2023-02-15T05:28:22.303Z,76.70
2023-02-15T05:31:08.155Z,77.50
2023-02-15T05:34:00.001Z,77.30
2023-02-15T05:36:50.806Z,78.60
2023-02-15T05:39:23.663Z,76.90
2023-02-15T05:42:20.354Z,76.90
2023-02-15T05:45:01.957Z,76.10
2023-02-15T05:47:33.456Z,78.00
2023-02-15T05:50:04.543Z,77.30
2023-02-15T05:52:36.549Z,77.80
2023-02-15T05:55:27.255Z,76.60
2023-02-15T05:57:58.533Z,74.20
2023-02-15T06:00:29.666Z,75.80
2023-02-15T06:03:00.997Z,73.30
2023-02-15T06:05:35.824Z,75.80
2023-02-15T06:08:07.181Z,74.20
2023-02-15T06:10:38.500Z,74.20
2023-02-15T06:13:12.681Z,75.10
2023-02-15T06:15:49.254Z,72.90
2023-02-15T06:18:21.400Z,75.50
2023-02-15T06:20:52.626Z,76.30
2023-02-15T06:23:23.685Z,75.00
2023-02-15T06:25:54.903Z,73.90
2023-02-15T06:28:30.042Z,77.30
2023-02-15T06:31:01.384Z,77.10
2023-02-15T06:33:36.300Z,74.20
2023-02-15T06:36:07.515Z,77.10
2023-02-15T06:38:38.689Z,72.80
2023-02-15T06:41:15.260Z,72.80
2023-02-15T06:43:51.153Z,74.20
2023-02-15T06:46:22.645Z,78.60
2023-02-15T06:49:14.604Z,74.20
2023-02-15T06:51:49.495Z,73.40
2023-02-15T06:54:21.313Z,71.30
2023-02-15T06:56:52.537Z,70.80
2023-02-15T06:59:27.519Z,72.60
2023-02-15T07:02:04.584Z,72.80
2023-02-15T07:05:07.975Z,74.70
2023-02-15T07:07:39.673Z,71.80
2023-02-15T07:10:11.064Z,71.90
2023-02-15T07:12:45.269Z,72.30
2023-02-15T07:15:34.123Z,72.30
2023-02-15T07:18:09.659Z,76.90
2023-02-15T07:20:45.322Z,72.00
2023-02-15T07:23:27.571Z,73.80
2023-02-15T07:26:04.459Z,72.20
2023-02-15T07:28:38.643Z,72.00
2023-02-15T07:31:09.911Z,72.00
2023-02-15T07:33:41.005Z,72.60
2023-02-15T07:36:14.525Z,73.10
2023-02-15T07:38:48.395Z,73.80
2023-02-15T07:41:25.926Z,72.60
2023-02-15T07:44:03.084Z,70.90
2023-02-15T07:46:34.396Z,70.10
2023-02-15T07:49:28.271Z,70.90
2023-02-15T07:51:59.775Z,72.70
2023-02-15T07:54:34.623Z,71.90
2023-02-15T07:57:05.846Z,73.00
2023-02-15T07:59:36.983Z,72.40
2023-02-15T08:02:17.549Z,71.70
2023-02-15T08:04:58.384Z,71.80
2023-02-15T08:07:47.301Z,71.30
2023-02-15T08:10:38.314Z,72.60
2023-02-15T08:13:09.459Z,72.40
2023-02-15T08:15:40.710Z,72.60
2023-02-15T08:18:11.851Z,72.30
2023-02-15T08:23:33.646Z,71.90
2023-02-15T08:26:08.579Z,71.80
2023-02-15T08:28:39.960Z,71.60
2023-02-15T08:31:13.368Z,71.60
2023-02-15T08:33:47.627Z,71.30
2023-02-15T08:36:23.492Z,71.00
2023-02-15T08:38:55.093Z,71.30
2023-02-15T08:41:40.142Z,73.30
2023-02-15T08:44:12.960Z,72.60
2023-02-15T08:46:46.459Z,72.90
2023-02-15T08:49:25.617Z,71.60
2023-02-15T08:51:56.786Z,75.10
2023-02-15T08:54:48.769Z,71.90
2023-02-15T08:57:19.873Z,71.40
2023-02-15T08:59:51.869Z,71.10
2023-02-15T09:02:24.336Z,72.10
2023-02-15T09:05:15.267Z,71.30
2023-02-15T09:07:51.831Z,72.70
2023-02-15T09:10:23.144Z,73.10
2023-02-15T09:12:55.238Z,75.60
2023-02-15T09:18:10.395Z,69.60
2023-02-15T09:20:54.314Z,70.90
2023-02-15T09:23:27.274Z,71.50
2023-02-15T09:26:08.359Z,73.40
2023-02-15T09:28:44.709Z,77.50
2023-02-15T09:31:20.443Z,77.60
2023-02-15T09:33:57.176Z,76.50
2023-02-15T09:36:38.838Z,77.60
2023-02-15T09:39:27.774Z,78.00
2023-02-15T09:42:08.406Z,79.30
2023-02-15T09:44:43.496Z,79.40
2023-02-15T09:48:03.481Z,79.30
2023-02-15T09:51:12.895Z,79.60
2023-02-15T09:54:24.716Z,81.00
2023-02-15T09:57:12.063Z,82.50
2023-02-15T10:00:19.198Z,84.40
2023-02-15T10:03:22.669Z,83.60
2023-02-15T10:06:26.574Z,83.10
2023-02-15T10:09:15.703Z,86.70
2023-02-15T10:12:01.479Z,87.70
2023-02-15T10:14:41.741Z,87.60
2023-02-15T10:17:15.684Z,90.00
2023-02-15T10:20:10.640Z,90.30
2023-02-15T10:23:14.239Z,90.40
2023-02-15T10:26:16.324Z,91.20
2023-02-15T10:28:54.700Z,91.80
2023-02-15T10:31:40.747Z,91.90
2023-02-15T10:34:45.222Z,92.50
2023-02-15T10:37:37.862Z,93.30
2023-02-15T10:40:39.275Z,92.70
2023-02-15T10:43:41.191Z,93.00
2023-02-15T10:46:45.647Z,94.10
2023-02-15T10:49:49.078Z,95.50
2023-02-15T10:52:45.826Z,95.90
2023-02-15T10:56:05.886Z,96.20
2023-02-15T10:58:53.294Z,96.40
2023-02-15T11:01:52.283Z,96.60
2023-02-15T11:05:11.507Z,96.10
2023-02-15T11:07:49.602Z,96.30
2023-02-15T11:10:50.237Z,96.40
2023-02-15T11:13:34.394Z,96.60
2023-02-15T11:16:20.722Z,96.70
2023-02-15T11:18:58.383Z,96.70
2023-02-15T11:21:31.408Z,96.50
2023-02-15T11:24:04.467Z,96.50
2023-02-15T11:26:54.364Z,96.00
2023-02-15T11:29:57.060Z,95.80
2023-02-15T11:32:41.083Z,96.00
2023-02-15T11:35:15.456Z,96.50
2023-02-15T11:38:34.445Z,97.00
2023-02-15T11:41:19.704Z,96.90
2023-02-15T11:44:09.768Z,97.00
2023-02-15T11:49:36.654Z,97.40
2023-02-15T11:52:18.660Z,97.60
2023-02-15T11:54:53.242Z,98.00
2023-02-15T12:00:49.481Z,97.30
2023-02-15T12:03:43.292Z,97.30
2023-02-15T12:06:41.437Z,97.90
2023-02-15T12:10:16.576Z,97.80
2023-02-15T12:13:19.060Z,98.30
2023-02-15T12:16:16.639Z,98.10
2023-02-15T12:18:54.015Z,98.60
2023-02-15T12:21:45.153Z,98.50
2023-02-15T12:24:56.424Z,98.50
2023-02-15T12:30:41.529Z,99.10
2023-02-15T12:33:26.713Z,99.00
2023-02-15T12:36:29.708Z,98.70
2023-02-15T12:39:22.092Z,98.70
2023-02-15T12:42:08.977Z,99.10
2023-02-15T12:44:55.841Z,99.10
2023-02-15T12:47:30.409Z,98.90
2023-02-15T12:50:25.643Z,99.80
2023-02-15T12:53:13.608Z,99.90
2023-02-15T12:56:09.378Z,99.90
2023-02-15T12:58:44.228Z,99.90
2023-02-15T13:01:20.869Z,99.90
2023-02-15T13:04:08.156Z,99.90
2023-02-15T13:06:52.611Z,99.90
2023-02-15T13:09:40.529Z,99.90
2023-02-15T13:12:35.029Z,99.90
2023-02-15T13:17:51.632Z,99.90
2023-02-15T13:20:32.569Z,99.90
2023-02-15T13:23:18.778Z,99.90
2023-02-15T13:25:53.034Z,99.90
2023-02-15T13:28:56.139Z,99.90
2023-02-15T13:31:31.934Z,99.90
2023-02-15T13:34:26.039Z,99.90
2023-02-15T13:37:18.993Z,99.90
2023-02-15T13:40:06.990Z,99.90
2023-02-15T13:43:22.639Z,99.90
2023-02-15T13:46:15.517Z,99.90
2023-02-15T13:49:25.860Z,99.90
2023-02-15T13:52:10.660Z,99.90
2023-02-15T13:55:02.715Z,99.90
2023-02-15T13:58:04.286Z,99.90
2023-02-15T14:01:27.046Z,99.90
2023-02-15T14:04:25.753Z,99.90
2023-02-15T14:07:12.731Z,99.90
2023-02-15T14:10:14.581Z,99.90
2023-02-15T14:16:02.026Z,99.90
2023-02-15T14:18:39.198Z,99.90
2023-02-15T14:21:22.583Z,99.90
2023-02-15T14:24:17.891Z,99.90
2023-02-15T14:27:28.153Z,99.90
2023-02-15T14:30:23.970Z,99.90
2023-02-15T14:33:11.569Z,99.90
2023-02-15T14:35:44.920Z,99.90
2023-02-15T14:39:05.142Z,99.90
2023-02-15T14:41:56.149Z,99.90
2023-02-15T14:48:01.002Z,99.90
2023-02-15T14:50:55.940Z,99.90
2023-02-15T14:53:42.517Z,99.90
2023-02-15T14:56:16.304Z,99.90
2023-02-15T14:58:58.962Z,99.90
2023-02-15T15:01:33.667Z,99.90
2023-02-15T15:04:36.282Z,99.90
2023-02-15T15:07:25.440Z,99.90
2023-02-15T15:10:19.718Z,99.90
2023-02-15T15:13:36.137Z,99.90
2023-02-15T15:16:46.565Z,99.90
2023-02-15T15:19:52.157Z,99.90
2023-02-15T15:22:27.511Z,99.90
2023-02-15T15:25:03.907Z,99.90
2023-02-15T15:27:56.053Z,99.90
2023-02-15T15:30:28.577Z,99.90
2023-02-15T15:33:44.043Z,99.90
2023-02-15T15:36:40.690Z,99.90
2023-02-15T15:39:51.268Z,99.90
2023-02-15T15:43:18.795Z,99.90
2023-02-15T15:46:08.209Z,99.90
2023-02-15T15:48:41.351Z,99.90
2023-02-15T15:51:22.796Z,99.90
2023-02-15T15:53:56.960Z,99.90
2023-02-15T15:56:40.767Z,99.90
2023-02-15T15:59:28.020Z,99.90
2023-02-15T16:02:14.872Z,99.90
2023-02-15T16:04:48.803Z,99.90
2023-02-15T16:07:29.711Z,99.90
2023-02-15T16:10:29.292Z,99.90
2023-02-15T16:16:09.720Z,99.90
2023-02-15T16:18:49.327Z,99.90
2023-02-15T16:21:44.977Z,99.90
2023-02-15T16:24:37.196Z,99.90
2023-02-15T16:27:14.533Z,99.90
2023-02-15T16:29:45.893Z,99.90
2023-02-15T16:32:22.096Z,99.90
2023-02-15T16:35:01.697Z,99.90
2023-02-15T16:37:52.721Z,99.90
2023-02-15T16:40:26.846Z,99.90
2023-02-15T16:43:10.243Z,99.90
2023-02-15T16:46:21.359Z,99.90
2023-02-15T16:48:54.708Z,99.90
2023-02-15T16:51:32.259Z,99.90
2023-02-15T16:54:10.072Z,99.90
2023-02-15T16:56:46.696Z,99.90
2023-02-15T16:59:53.663Z,99.90
2023-02-15T17:03:03.473Z,99.90
2023-02-15T17:05:53.891Z,99.90
2023-02-15T17:08:36.806Z,99.90
2023-02-15T17:11:15.843Z,99.90
2023-02-15T17:14:05.735Z,99.90
2023-02-15T17:16:51.547Z,99.90
2023-02-15T17:19:56.824Z,99.90
2023-02-15T17:22:31.868Z,99.90
2023-02-15T17:25:06.944Z,99.90
2023-02-15T17:27:38.509Z,99.90
2023-02-15T17:30:34.764Z,99.90
2023-02-15T17:33:22.537Z,99.90
2023-02-15T17:36:16.339Z,99.90
2023-02-15T17:39:12.687Z,99.90
2023-02-15T17:41:45.428Z,99.90
2023-02-15T17:44:37.639Z,99.90
2023-02-15T17:47:08.903Z,99.90
2023-02-15T17:49:40.136Z,99.90
2023-02-15T17:52:16.347Z,99.90
2023-02-15T17:55:05.849Z,99.90
2023-02-15T17:57:37.097Z,99.90
2023-02-15T18:00:27.708Z,99.90
2023-02-15T18:03:16.911Z,99.90
2023-02-15T18:06:25.894Z,99.90
2023-02-15T18:09:15.211Z,99.90
2023-02-15T18:11:50.409Z,99.90
2023-02-15T18:14:21.765Z,99.90
2023-02-15T18:16:53.167Z,99.90
2023-02-15T18:19:29.291Z,99.90
2023-02-15T18:22:04.205Z,99.90
2023-02-15T18:24:46.757Z,99.90
2023-02-15T18:27:18.915Z,99.90
2023-02-15T18:29:50.439Z,99.90
2023-02-15T18:32:34.893Z,99.90
2023-02-15T18:35:06.248Z,99.90
2023-02-15T18:37:37.619Z,99.90
2023-02-15T18:40:16.431Z,99.90
2023-02-15T18:43:07.530Z,99.90
2023-02-15T18:45:39.092Z,99.90
2023-02-15T18:48:11.616Z,99.90
2023-02-15T18:50:42.851Z,99.90
2023-02-15T18:53:20.630Z,99.90
2023-02-15T18:55:51.789Z,99.90
2023-02-15T18:58:26.198Z,99.90
2023-02-15T19:01:02.572Z,99.90
2023-02-15T19:03:36.381Z,99.90
2023-02-15T19:06:08.643Z,99.90
2023-02-15T19:09:01.959Z,99.90
2023-02-15T19:11:32.850Z,99.90
2023-02-15T19:14:03.789Z,99.90
2023-02-15T19:16:37.841Z,99.90
2023-02-15T19:19:12.525Z,99.90
2023-02-15T19:21:43.538Z,99.90
2023-02-15T19:24:43.694Z,99.90
2023-02-15T19:27:22.702Z,99.90
2023-02-15T19:29:54.732Z,99.90
2023-02-15T19:32:29.116Z,99.90
2023-02-15T19:35:00.377Z,99.90
2023-02-15T19:37:46.286Z,99.90
2023-02-15T19:40:38.096Z,99.90
2023-02-15T19:43:17.737Z,99.90
2023-02-15T19:45:49.075Z,99.90
2023-02-15T19:48:20.208Z,99.90
2023-02-15T19:50:54.360Z,99.90
2023-02-15T19:53:30.884Z,99.90
2023-02-15T19:56:06.588Z,99.90
2023-02-15T19:58:37.568Z,99.90
2023-02-15T20:01:08.662Z,99.90
2023-02-15T20:03:42.984Z,99.90
2023-02-15T20:06:20.111Z,99.90
2023-02-15T20:09:11.513Z,99.90
2023-02-15T20:11:48.687Z,99.90
2023-02-15T20:14:20.473Z,99.90
2023-02-15T20:16:51.936Z,99.90
2023-02-15T20:19:22.916Z,99.90
2023-02-15T20:21:56.337Z,99.90
2023-02-15T20:24:30.343Z,99.90
2023-02-15T20:27:01.525Z,99.90
2023-02-15T20:29:32.243Z,99.90
2023-02-15T20:32:04.975Z,99.90
2023-02-15T20:34:35.889Z,99.90
2023-02-15T20:37:07.438Z,99.90
2023-02-15T20:39:38.538Z,99.90
2023-02-15T20:42:31.646Z,99.90
2023-02-15T20:45:04.460Z,99.90
2023-02-15T20:47:35.453Z,99.90
2023-02-15T20:50:09.746Z,99.90
2023-02-15T20:52:40.794Z,99.90
2023-02-15T20:55:17.478Z,99.90
2023-02-15T20:57:48.576Z,99.90
2023-02-15T21:00:23.161Z,99.90
2023-02-15T21:03:00.797Z,99.90
2023-02-15T21:05:35.212Z,99.90
2023-02-15T21:08:16.113Z,99.90
2023-02-15T21:10:49.441Z,99.90
2023-02-15T21:13:38.418Z,99.90
2023-02-15T21:16:11.436Z,99.90
2023-02-15T21:18:43.667Z,99.90
2023-02-15T21:21:36.891Z,99.90
2023-02-15T21:24:29.659Z,99.90
2023-02-15T21:27:04.509Z,99.90
2023-02-15T21:29:35.565Z,99.90
2023-02-15T21:32:06.759Z,99.90
2023-02-15T21:34:38.072Z,99.90
2023-02-15T21:37:37.512Z,99.90
2023-02-15T21:40:30.819Z,99.90
2023-02-15T21:43:19.967Z,99.90
2023-02-15T21:46:44.403Z,99.90
2023-02-15T21:49:15.245Z,99.90
2023-02-15T21:52:04.220Z,99.90
2023-02-15T21:54:35.163Z,99.90
2023-02-15T21:57:26.990Z,99.90
2023-02-15T21:59:58.044Z,99.90
2023-02-15T22:02:32.085Z,99.90
2023-02-15T22:05:03.568Z,99.90
2023-02-15T22:07:34.429Z,99.90
2023-02-15T22:10:05.467Z,99.90
2023-02-15T22:12:36.620Z,99.90
2023-02-15T22:15:08.470Z,99.90
2023-02-15T22:17:39.416Z,99.90
2023-02-15T22:20:18.355Z,99.90
2023-02-15T22:22:50.324Z,99.90
2023-02-15T22:25:24.213Z,99.90
2023-02-15T22:27:57.894Z,99.90
2023-02-15T22:33:32.967Z,99.90
2023-02-15T22:36:04.038Z,99.90
2023-02-15T22:38:55.869Z,99.90
2023-02-15T22:41:46.707Z,99.90
2023-02-15T22:44:29.058Z,99.90
2023-02-15T22:47:01.525Z,99.90
2023-02-15T22:49:32.606Z,99.90
2023-02-15T22:52:03.649Z,99.90
2023-02-15T22:54:34.663Z,99.90
2023-02-15T22:57:05.598Z,99.90
2023-02-15T22:59:36.793Z,99.90
2023-02-15T23:02:09.166Z,99.90
2023-02-15T23:04:40.292Z,99.90
2023-02-15T23:07:22.144Z,99.90
2023-02-15T23:09:53.076Z,99.90
2023-02-15T23:12:28.767Z,99.90
2023-02-15T23:15:00.289Z,99.90
2023-02-15T23:17:52.333Z,99.90
2023-02-15T23:20:23.050Z,99.90
2023-02-15T23:22:54.080Z,99.90
2023-02-15T23:25:26.915Z,99.90
2023-02-15T23:28:00.782Z,99.90
2023-02-15T23:30:31.528Z,99.90
2023-02-15T23:33:02.229Z,99.90
2023-02-15T23:35:33.328Z,99.90
2023-02-15T23:38:06.006Z,99.90
2023-02-15T23:40:55.061Z,99.90
2023-02-15T23:43:26.100Z,99.90
2023-02-15T23:45:57.233Z,99.90
2023-02-15T23:48:38.717Z,99.90
2023-02-15T23:51:33.414Z,99.90
2023-02-15T23:54:04.705Z,99.90
2023-02-15T23:57:02.325Z,99.90
2023-02-15T23:59:34.298Z,99.90
